Flight Track Log - Related Links

Times and Time Zones

All times are in EDT time to prevent confusion due to time zone crossing. See the GLA57N flight status page for this flight to view local times or setup timezone preferences in your user account.

Time Position Orientation Groundspeed Altitude Reporting Facility
EDT Latitude Longitude Course Direction KTS MPH feet Rate Location/Type
Wed 07:35:06 PM 41.0933 -100.8592 270° West 208 239 10,800  Level Denver Center
Wed 07:36:08 PM 41.0669 -100.9344 245° Southwest 210 242 13,000 1,887 Climbing Denver Center
Wed 07:37:10 PM 41.0631 -101.0067 266° West 208 239 14,700 1,790 Climbing Denver Center
Wed 07:38:00 PM 41.1167 -101.1925 270° West  Level FlightAware Approximate
Wed 07:38:12 PM 41.0633 -101.0775 270° West 204 235 16,700  Level Denver Center
Wed 07:39:00 PM 41.1167 -101.2774 270° West  Level FlightAware Approximate
Wed 07:39:14 PM 41.0572 -101.1481 263° West 177 204 18,100  Level Denver Center
Wed 07:40:00 PM 41.1167 -101.3623 270° West  Level FlightAware Approximate
Wed 07:40:16 PM 41.0486 -101.2100 260° West 179 206 18,800  Level Denver Center
Wed 07:41:18 PM 41.0411 -101.2831 262° West 181 208 19,900 878 Climbing Denver Center
Wed 07:42:19 PM 41.0364 -101.3361 263° West 181 208 20,600 871 Climbing Denver Center
Wed 07:43:22 PM 41.0292 -101.4272 264° West 194 223 21,700 672 Climbing Denver Center
Wed 07:44:24 PM 41.0247 -101.4997 265° West 204 235 22,000 133 Climbing Denver Center
Wed 07:45:37 PM 41.0217 -101.5903 267° West 220 253 22,000 44 Level Denver Center
Wed 07:46:40 PM 41.0158 -101.6953 266° West 224 258 22,100 48 Climbing Denver Center
Wed 07:47:42 PM 41.0108 -101.7764 265° West 231 266 22,100 435 Level Denver Center
Wed 07:48:44 PM 41.0047 -101.8525 264° West 220 253 23,000 919 Climbing Denver Center
Wed 07:49:46 PM 41.0000 -101.9311 265° West 195 224 24,000 484 Climbing Denver Center
Wed 07:50:48 PM 40.9958 -102.0006 265° West 199 229 24,000  Level Denver Center
Wed 07:52:00 PM 40.9580 -102.0936 258° West  Level Estimated
Wed 07:52:52 PM 40.9803 -102.1653 258° West 218 251 24,000  Level Denver Center
Wed 07:53:54 PM 40.9683 -102.2561 260° West 223 257 24,000 48 Level Denver Center
Wed 07:54:56 PM 40.9606 -102.3297 262° West 215 247 24,100  Climbing Denver Center
Wed 07:55:57 PM 40.9544 -102.3917 263° West 213 245 24,000  Descending Denver Center
Wed 07:57:00 PM 40.9450 -102.4883 263° West 208 239 24,100 48 Climbing Denver Center
Wed 07:58:02 PM 40.9378 -102.5714 263° West 204 235 24,100 -194 Level Denver Center
Wed 07:59:04 PM 40.9317 -102.6422 264° West 204 235 23,700 -672 Descending Denver Center
Wed 08:00:07 PM 40.9236 -102.7197 262° West 191 220 22,700 -1,200 Descending Denver Center
Wed 08:01:09 PM 40.9111 -102.7864 256° West 195 224 21,200 -1,258 Descending Denver Center
Wed 08:02:11 PM 40.8931 -102.8708 254° West 212 244 20,100 -968 Descending Denver Center
Wed 08:03:13 PM 40.8775 -102.9425 254° West 213 245 19,200 -968 Descending Denver Center
Wed 08:04:15 PM 40.8614 -103.0247 256° West 217 250 18,100 -532 Descending Denver Center
Wed 08:05:17 PM 40.8456 -103.1083 256° West 230 265 18,100 -48 Level Denver Center
Wed 08:06:19 PM 40.8297 -103.1936 256° West 237 273 18,000  Descending Denver Center
Wed 08:07:20 PM 40.8158 -103.2614 255° West 232 267 18,100  Climbing Denver Center
Wed 08:08:23 PM 40.7894 -103.3522 249° West 229 264 18,000  Descending Denver Center
Wed 08:09:25 PM 40.7508 -103.4231 234° Southwest 237 273 18,100 -49 Climbing Denver Center
Wed 08:10:26 PM 40.7181 -103.4833 234° Southwest 238 274 17,900 -823 Descending Denver Center
Wed 08:11:29 PM 40.6653 -103.5819 235° Southwest 245 282 16,400 -1,440 Descending Denver Center
Wed 08:12:31 PM 40.6156 -103.6503 226° Southwest 255 293 14,900 -1,220 Descending Denver Center
Wed 08:13:32 PM 40.5672 -103.7050 221° Southwest 268 308 13,900 -871 Descending Denver Center
Wed 08:14:35 PM 40.5025 -103.7847 223° Southwest 271 312 13,100 -384 Descending Denver Center
Wed 08:15:37 PM 40.4447 -103.8625 226° Southwest 276 318 13,100  Level Denver Center
Wed 08:16:39 PM 40.3931 -103.9350 227° Southwest 274 315 13,100  Level Denver Center
Wed 08:17:41 PM 40.3414 -104.0125 229° Southwest 264 304 13,100 -48 Level Denver Center
Wed 08:18:43 PM 40.2950 -104.0864 231° Southwest 263 303 13,000  Descending Denver Center
Wed 08:19:45 PM 40.2433 -104.1647 229° Southwest 262 302 13,100 49 Climbing Denver Center
Wed 08:20:46 PM 40.1886 -104.2322 223° Southwest 268 308 13,100 -49 Level Denver Center
Wed 08:21:48 PM 40.1328 -104.2978 222° Southwest 268 308 13,000  Descending Denver Center
Wed 08:22:50 PM 40.0717 -104.3669 221° Southwest 271 312 13,100 71 Climbing Denver Center
Wed 08:23:12 PM 40.0500 -104.3833 210° Southwest 272 313 13,100 -42 Level Denver TRACON
Wed 08:25:12 PM 39.9167 -104.4833 210° Southwest 272 313 13,000 -476 Descending Denver TRACON
Wed 08:25:56 PM 39.8589 -104.4856 182° South 280 322 11,800 -1,075 Descending Denver Center
Wed 08:26:58 PM 39.7814 -104.4875 181° South 278 320 11,100 -439 Descending Denver Center
Wed 08:27:59 PM 39.7039 -104.4914 182° South 274 315 10,900 -838 Descending Denver Center
Wed 08:29:14 PM 39.6108 -104.5003 184° South 268 308 9,200 -964 Descending Denver Center
Wed 08:30:16 PM 39.5486 -104.5247 197° South 228 262 8,700 -537 Descending Denver Center
Wed 08:31:17 PM 39.5453 -104.6000 267° West 211 243 8,100 -293 Descending Denver Center
Wed 08:32:19 PM 39.5894 -104.6358 328° Northwest 188 216 8,100  Level Denver Center
Wed 08:33:21 PM 39.6378 -104.6433 353° North 163 188 8,100  Level Denver Center
Wed 08:34:35 PM 39.6850 -104.6431 360° North 169 194 8,100 -397 Level Denver Center
Wed 08:35:37 PM 39.7433 -104.6425 360° North 170 196 7,200 -871 Descending Denver Center
Wed 08:36:39 PM 39.7867 -104.6419 North 143 165 6,300 -726 Descending Denver Center
Wed 08:37:41 PM 39.8211 -104.6419 360° North 126 145 5,700 -397 Descending Denver Center
Wed 08:38:55 PM 39.8528 -104.6406 North 125 144 5,400 -243 Descending Denver Center

Login

Don't have an account? Register now (free) for customized features, flight alerts, and more!